sensor_id;sensor_type;location;lat;lon;timestamp;pressure;altitude;pressure_sealevel;temperature;humidity
43155;BME280;34212;51.018;13.586;2023-06-26T00:03:30;97989.09;;;20.17;75.74
43155;BME280;34212;51.018;13.586;2023-06-26T00:08:33;97985.22;;;20.13;75.91
43155;BME280;34212;51.018;13.586;2023-06-26T00:13:34;97984.88;;;20.10;75.85
43155;BME280;34212;51.018;13.586;2023-06-26T00:18:36;97986.66;;;20.04;75.96
43155;BME280;34212;51.018;13.586;2023-06-26T00:23:37;97979.00;;;20.01;76.15
43155;BME280;34212;51.018;13.586;2023-06-26T00:28:40;97971.34;;;19.98;75.78
43155;BME280;34212;51.018;13.586;2023-06-26T00:33:42;97964.78;;;19.94;76.13
43155;BME280;34212;51.018;13.586;2023-06-26T00:38:43;97971.34;;;19.86;76.32
43155;BME280;34212;51.018;13.586;2023-06-26T00:43:45;97966.06;;;19.79;76.06
43155;BME280;34212;51.018;13.586;2023-06-26T00:48:48;97955.56;;;19.71;75.73
43155;BME280;34212;51.018;13.586;2023-06-26T00:53:51;97959.44;;;19.64;76.21
43155;BME280;34212;51.018;13.586;2023-06-26T00:58:53;97960.13;;;19.59;76.28
43155;BME280;34212;51.018;13.586;2023-06-26T01:03:54;97954.59;;;19.54;76.62
43155;BME280;34212;51.018;13.586;2023-06-26T01:08:59;97955.53;;;19.48;76.44
43155;BME280;34212;51.018;13.586;2023-06-26T01:14:01;97949.53;;;19.46;76.68
43155;BME280;34212;51.018;13.586;2023-06-26T01:19:03;97938.09;;;19.44;78.28
43155;BME280;34212;51.018;13.586;2023-06-26T01:24:16;97931.88;;;19.43;77.43
43155;BME280;34212;51.018;13.586;2023-06-26T01:29:24;97935.88;;;19.41;77.44
43155;BME280;34212;51.018;13.586;2023-06-26T01:34:27;97934.38;;;19.45;77.60
43155;BME280;34212;51.018;13.586;2023-06-26T01:39:28;97933.66;;;19.49;77.53
43155;BME280;34212;51.018;13.586;2023-06-26T01:44:35;97924.84;;;19.54;77.31
43155;BME280;34212;51.018;13.586;2023-06-26T01:49:47;97918.38;;;19.55;77.17
43155;BME280;34212;51.018;13.586;2023-06-26T01:54:56;97912.84;;;19.50;76.90
43155;BME280;34212;51.018;13.586;2023-06-26T02:00:01;97915.31;;;19.39;77.14
43155;BME280;34212;51.018;13.586;2023-06-26T02:05:14;97912.72;;;19.33;77.65
43155;BME280;34212;51.018;13.586;2023-06-26T02:10:15;97908.25;;;19.27;77.34
43155;BME280;34212;51.018;13.586;2023-06-26T02:15:17;97901.41;;;19.24;77.59
43155;BME280;34212;51.018;13.586;2023-06-26T02:20:18;97901.88;;;19.21;77.61
43155;BME280;34212;51.018;13.586;2023-06-26T02:25:20;97907.75;;;19.18;77.52
43155;BME280;34212;51.018;13.586;2023-06-26T02:30:21;97906.56;;;19.14;77.55
43155;BME280;34212;51.018;13.586;2023-06-26T02:35:23;97900.00;;;19.10;77.69
43155;BME280;34212;51.018;13.586;2023-06-26T02:40:24;97906.44;;;19.09;77.63
43155;BME280;34212;51.018;13.586;2023-06-26T02:45:27;97887.16;;;19.05;77.58
43155;BME280;34212;51.018;13.586;2023-06-26T02:50:29;97888.44;;;19.03;79.07
43155;BME280;34212;51.018;13.586;2023-06-26T02:55:42;97888.91;;;19.00;78.35
43155;BME280;34212;51.018;13.586;2023-06-26T03:00:44;97884.44;;;18.93;78.46
43155;BME280;34212;51.018;13.586;2023-06-26T03:05:49;97894.31;;;18.88;78.12
43155;BME280;34212;51.018;13.586;2023-06-26T03:10:51;97887.47;;;18.85;78.35
43155;BME280;34212;51.018;13.586;2023-06-26T03:15:53;97883.25;;;18.89;78.49
43155;BME280;34212;51.018;13.586;2023-06-26T03:20:59;97881.63;;;19.00;78.35
43155;BME280;34212;51.018;13.586;2023-06-26T03:26:01;97884.00;;;19.08;78.52
43155;BME280;34212;51.018;13.586;2023-06-26T03:31:08;97875.66;;;19.10;78.39
43155;BME280;34212;51.018;13.586;2023-06-26T03:36:10;97878.25;;;19.17;78.95
43155;BME280;34212;51.018;13.586;2023-06-26T03:41:11;97877.06;;;19.24;78.78
43155;BME280;34212;51.018;13.586;2023-06-26T03:46:15;97860.53;;;19.32;78.68
43155;BME280;34212;51.018;13.586;2023-06-26T03:51:17;97866.63;;;19.39;79.01
43155;BME280;34212;51.018;13.586;2023-06-26T03:56:19;97857.56;;;19.46;79.09
43155;BME280;34212;51.018;13.586;2023-06-26T04:01:20;97857.69;;;19.51;79.24
43155;BME280;34212;51.018;13.586;2023-06-26T04:06:23;97853.47;;;19.55;79.20
43155;BME280;34212;51.018;13.586;2023-06-26T04:11:25;97854.63;;;19.59;79.39
43155;BME280;34212;51.018;13.586;2023-06-26T04:16:28;97852.66;;;19.66;79.77
43155;BME280;34212;51.018;13.586;2023-06-26T04:21:30;97849.84;;;19.73;80.88
43155;BME280;34212;51.018;13.586;2023-06-26T04:26:31;97856.19;;;19.78;80.54
43155;BME280;34212;51.018;13.586;2023-06-26T04:31:33;97848.75;;;19.86;80.59
43155;BME280;34212;51.018;13.586;2023-06-26T04:36:35;97844.84;;;19.93;81.81
43155;BME280;34212;51.018;13.586;2023-06-26T04:41:40;97850.59;;;19.97;81.73
43155;BME280;34212;51.018;13.586;2023-06-26T04:46:42;97851.53;;;20.02;81.70
43155;BME280;34212;51.018;13.586;2023-06-26T04:51:44;97845.75;;;20.11;81.32
43155;BME280;34212;51.018;13.586;2023-06-26T04:56:45;97841.34;;;20.21;81.78
43155;BME280;34212;51.018;13.586;2023-06-26T05:01:48;97846.97;;;20.32;81.61
43155;BME280;34212;51.018;13.586;2023-06-26T05:06:50;97840.66;;;20.43;81.75
43155;BME280;34212;51.018;13.586;2023-06-26T05:11:51;97840.91;;;20.53;81.55
43155;BME280;34212;51.018;13.586;2023-06-26T05:16:53;97844.13;;;20.67;81.88
43155;BME280;34212;51.018;13.586;2023-06-26T05:21:55;97828.84;;;20.77;81.37
43155;BME280;34212;51.018;13.586;2023-06-26T05:26:57;97833.38;;;20.89;81.27
43155;BME280;34212;51.018;13.586;2023-06-26T05:31:59;97826.81;;;21.02;80.94
43155;BME280;34212;51.018;13.586;2023-06-26T05:37:01;97827.56;;;21.14;80.76
43155;BME280;34212;51.018;13.586;2023-06-26T05:42:03;97811.75;;;21.28;82.21
43155;BME280;34212;51.018;13.586;2023-06-26T05:47:05;97817.13;;;21.39;81.56
43155;BME280;34212;51.018;13.586;2023-06-26T05:52:07;97808.66;;;21.53;81.21
43155;BME280;34212;51.018;13.586;2023-06-26T05:57:09;97804.47;;;21.67;80.86
43155;BME280;34212;51.018;13.586;2023-06-26T06:02:11;97800.06;;;21.83;82.37
43155;BME280;34212;51.018;13.586;2023-06-26T06:07:13;97799.13;;;21.94;81.04
43155;BME280;34212;51.018;13.586;2023-06-26T06:12:14;97798.75;;;22.07;82.67
43155;BME280;34212;51.018;13.586;2023-06-26T06:17:16;97807.03;;;22.18;81.23
43155;BME280;34212;51.018;13.586;2023-06-26T06:22:17;97794.13;;;22.30;80.13
43155;BME280;34212;51.018;13.586;2023-06-26T06:27:19;97795.88;;;22.41;79.63
43155;BME280;34212;51.018;13.586;2023-06-26T06:32:20;97801.16;;;22.53;79.25
43155;BME280;34212;51.018;13.586;2023-06-26T06:37:22;97792.31;;;22.68;77.65
43155;BME280;34212;51.018;13.586;2023-06-26T06:42:24;97792.72;;;22.81;76.84
43155;BME280;34212;51.018;13.586;2023-06-26T06:47:25;97791.69;;;22.93;75.90
43155;BME280;34212;51.018;13.586;2023-06-26T06:52:27;97791.56;;;23.04;76.05
43155;BME280;34212;51.018;13.586;2023-06-26T06:57:28;97782.41;;;23.16;74.78
43155;BME280;34212;51.018;13.586;2023-06-26T07:02:30;97781.69;;;23.31;77.61
43155;BME280;34212;51.018;13.586;2023-06-26T07:07:32;97785.81;;;23.38;75.83
43155;BME280;34212;51.018;13.586;2023-06-26T07:12:36;97785.84;;;23.48;74.62
43155;BME280;34212;51.018;13.586;2023-06-26T07:17:37;97773.38;;;23.58;74.29
43155;BME280;34212;51.018;13.586;2023-06-26T07:22:41;97777.56;;;23.70;73.42
43155;BME280;34212;51.018;13.586;2023-06-26T07:27:42;97775.75;;;23.86;72.00
43155;BME280;34212;51.018;13.586;2023-06-26T07:32:45;97770.63;;;24.00;71.69
43155;BME280;34212;51.018;13.586;2023-06-26T07:37:47;97773.94;;;24.23;68.29
43155;BME280;34212;51.018;13.586;2023-06-26T07:42:48;97769.91;;;24.40;71.52
43155;BME280;34212;51.018;13.586;2023-06-26T07:47:50;97775.41;;;24.56;67.33
43155;BME280;34212;51.018;13.586;2023-06-26T07:52:51;97779.50;;;24.74;64.68
43155;BME280;34212;51.018;13.586;2023-06-26T07:57:54;97781.94;;;25.01;62.08
43155;BME280;34212;51.018;13.586;2023-06-26T08:02:56;97774.88;;;25.15;62.11
43155;BME280;34212;51.018;13.586;2023-06-26T08:07:58;97773.75;;;25.26;62.81
43155;BME280;34212;51.018;13.586;2023-06-26T08:12:59;97765.00;;;25.40;61.30
43155;BME280;34212;51.018;13.586;2023-06-26T08:18:01;97760.31;;;25.55;61.66
43155;BME280;34212;51.018;13.586;2023-06-26T08:23:04;97756.50;;;25.56;61.60
43155;BME280;34212;51.018;13.586;2023-06-26T08:28:05;97762.75;;;25.62;61.88
43155;BME280;34212;51.018;13.586;2023-06-26T08:33:07;97760.53;;;25.69;61.83
43155;BME280;34212;51.018;13.586;2023-06-26T08:38:13;97759.72;;;25.74;61.76
43155;BME280;34212;51.018;13.586;2023-06-26T08:43:15;97746.84;;;25.85;60.48
43155;BME280;34212;51.018;13.586;2023-06-26T08:48:17;97741.88;;;25.92;60.68
43155;BME280;34212;51.018;13.586;2023-06-26T08:53:56;97737.47;;;26.01;59.21
43155;BME280;34212;51.018;13.586;2023-06-26T08:58:58;97747.28;;;26.07;60.31
43155;BME280;34212;51.018;13.586;2023-06-26T09:04:00;97743.41;;;26.18;59.30
43155;BME280;34212;51.018;13.586;2023-06-26T09:09:02;97741.69;;;26.27;59.00
43155;BME280;34212;51.018;13.586;2023-06-26T09:14:05;97736.72;;;26.35;59.02
43155;BME280;34212;51.018;13.586;2023-06-26T09:19:09;97736.69;;;26.45;57.91
43155;BME280;34212;51.018;13.586;2023-06-26T09:24:12;97735.50;;;26.56;57.51
43155;BME280;34212;51.018;13.586;2023-06-26T09:29:14;97730.81;;;26.62;58.51
43155;BME280;34212;51.018;13.586;2023-06-26T09:34:17;97730.47;;;26.74;56.92
43155;BME280;34212;51.018;13.586;2023-06-26T09:39:20;97727.66;;;26.79;57.28
43155;BME280;34212;51.018;13.586;2023-06-26T09:44:22;97735.25;;;26.87;55.80
43155;BME280;34212;51.018;13.586;2023-06-26T09:49:23;97720.44;;;26.93;55.05
43155;BME280;34212;51.018;13.586;2023-06-26T09:54:25;97728.03;;;27.01;54.76
43155;BME280;34212;51.018;13.586;2023-06-26T09:59:30;97730.94;;;27.10;55.65
43155;BME280;34212;51.018;13.586;2023-06-26T10:04:33;97722.09;;;27.23;54.51
43155;BME280;34212;51.018;13.586;2023-06-26T10:09:38;97705.81;;;27.32;54.21
43155;BME280;34212;51.018;13.586;2023-06-26T10:14:42;97709.56;;;27.41;54.78
43155;BME280;34212;51.018;13.586;2023-06-26T10:19:48;97710.50;;;27.55;54.64
43155;BME280;34212;51.018;13.586;2023-06-26T10:24:50;97699.34;;;27.71;53.97
43155;BME280;34212;51.018;13.586;2023-06-26T10:29:55;97691.03;;;27.81;54.33
43155;BME280;34212;51.018;13.586;2023-06-26T10:34:57;97696.72;;;27.84;54.04
43155;BME280;34212;51.018;13.586;2023-06-26T10:39:59;97687.09;;;27.87;53.32
43155;BME280;34212;51.018;13.586;2023-06-26T10:45:14;97682.59;;;27.96;53.09
43155;BME280;34212;51.018;13.586;2023-06-26T10:55:27;97676.34;;;28.09;52.95
43155;BME280;34212;51.018;13.586;2023-06-26T11:00:30;97683.56;;;28.05;51.34
43155;BME280;34212;51.018;13.586;2023-06-26T11:05:33;97671.41;;;28.12;50.50
43155;BME280;34212;51.018;13.586;2023-06-26T11:10:54;97665.97;;;28.25;51.03
43155;BME280;34212;51.018;13.586;2023-06-26T11:16:01;97669.97;;;28.33;51.48
43155;BME280;34212;51.018;13.586;2023-06-26T11:21:09;97659.19;;;28.42;49.78
43155;BME280;34212;51.018;13.586;2023-06-26T11:26:24;97662.63;;;28.47;49.68
43155;BME280;34212;51.018;13.586;2023-06-26T11:31:36;97659.88;;;28.47;48.36
43155;BME280;34212;51.018;13.586;2023-06-26T11:36:42;97650.47;;;28.53;49.75
43155;BME280;34212;51.018;13.586;2023-06-26T11:41:45;97661.56;;;28.62;48.64
43155;BME280;34212;51.018;13.586;2023-06-26T11:46:47;97654.06;;;28.68;49.36
43155;BME280;34212;51.018;13.586;2023-06-26T11:51:53;97655.34;;;28.57;49.59
43155;BME280;34212;51.018;13.586;2023-06-26T11:56:57;97639.94;;;28.61;50.67
43155;BME280;34212;51.018;13.586;2023-06-26T12:01:59;97651.25;;;28.73;50.18
43155;BME280;34212;51.018;13.586;2023-06-26T12:07:01;97640.16;;;28.78;50.46
43155;BME280;34212;51.018;13.586;2023-06-26T12:12:05;97646.56;;;28.87;50.06
43155;BME280;34212;51.018;13.586;2023-06-26T12:17:13;97623.84;;;29.00;48.29
43155;BME280;34212;51.018;13.586;2023-06-26T12:22:16;97627.81;;;29.08;49.92
43155;BME280;34212;51.018;13.586;2023-06-26T12:27:18;97625.00;;;29.13;50.49
43155;BME280;34212;51.018;13.586;2023-06-26T12:32:24;97608.19;;;29.15;48.68
43155;BME280;34212;51.018;13.586;2023-06-26T12:37:37;97594.38;;;29.20;47.86
43155;BME280;34212;51.018;13.586;2023-06-26T12:42:41;97615.13;;;29.26;47.60
43155;BME280;34212;51.018;13.586;2023-06-26T12:47:43;97611.63;;;29.34;47.00
43155;BME280;34212;51.018;13.586;2023-06-26T12:52:44;97608.00;;;29.39;47.15
43155;BME280;34212;51.018;13.586;2023-06-26T12:57:46;97605.53;;;29.37;45.50
43155;BME280;34212;51.018;13.586;2023-06-26T13:02:47;97591.19;;;29.40;46.54
43155;BME280;34212;51.018;13.586;2023-06-26T13:07:49;97590.03;;;30.28;44.34
43155;BME280;34212;51.018;13.586;2023-06-26T13:12:51;97586.59;;;31.07;43.73
43155;BME280;34212;51.018;13.586;2023-06-26T13:17:52;97574.34;;;31.30;43.07
43155;BME280;34212;51.018;13.586;2023-06-26T13:22:55;97565.66;;;31.37;41.69
43155;BME280;34212;51.018;13.586;2023-06-26T13:27:56;97565.25;;;31.21;43.73
43155;BME280;34212;51.018;13.586;2023-06-26T13:32:58;97560.00;;;30.94;42.66
43155;BME280;34212;51.018;13.586;2023-06-26T13:37:59;97549.50;;;30.73;42.65
43155;BME280;34212;51.018;13.586;2023-06-26T13:43:01;97543.28;;;30.59;43.61
43155;BME280;34212;51.018;13.586;2023-06-26T13:48:03;97537.44;;;30.52;44.25
43155;BME280;34212;51.018;13.586;2023-06-26T13:53:05;97548.25;;;30.48;43.91
43155;BME280;34212;51.018;13.586;2023-06-26T13:58:07;97529.63;;;30.45;43.85
43155;BME280;34212;51.018;13.586;2023-06-26T14:03:10;97525.44;;;30.48;43.08
43155;BME280;34212;51.018;13.586;2023-06-26T14:08:13;97524.31;;;30.49;43.13
43155;BME280;34212;51.018;13.586;2023-06-26T14:13:14;97512.16;;;30.50;43.31
43155;BME280;34212;51.018;13.586;2023-06-26T14:18:17;97510.50;;;30.40;42.58
43155;BME280;34212;51.018;13.586;2023-06-26T14:23:19;97504.84;;;30.36;43.59
43155;BME280;34212;51.018;13.586;2023-06-26T14:28:20;97493.53;;;30.47;44.34
43155;BME280;34212;51.018;13.586;2023-06-26T14:33:22;97476.13;;;30.60;42.55
43155;BME280;34212;51.018;13.586;2023-06-26T14:38:23;97459.97;;;30.67;43.13
43155;BME280;34212;51.018;13.586;2023-06-26T14:43:25;97451.56;;;30.72;42.92
43155;BME280;34212;51.018;13.586;2023-06-26T14:48:27;97436.03;;;30.76;43.64
43155;BME280;34212;51.018;13.586;2023-06-26T14:53:31;97435.41;;;30.79;42.67
43155;BME280;34212;51.018;13.586;2023-06-26T14:58:32;97421.81;;;30.83;43.17
43155;BME280;34212;51.018;13.586;2023-06-26T15:03:34;97420.22;;;30.82;42.19
43155;BME280;34212;51.018;13.586;2023-06-26T15:08:36;97408.69;;;30.80;42.41
43155;BME280;34212;51.018;13.586;2023-06-26T15:13:37;97419.41;;;30.81;41.56
43155;BME280;34212;51.018;13.586;2023-06-26T15:18:40;97410.50;;;30.85;41.92
43155;BME280;34212;51.018;13.586;2023-06-26T15:23:42;97413.91;;;30.90;41.16
43155;BME280;34212;51.018;13.586;2023-06-26T15:28:43;97411.81;;;30.96;41.89
43155;BME280;34212;51.018;13.586;2023-06-26T15:33:45;97411.63;;;30.92;41.71
43155;BME280;34212;51.018;13.586;2023-06-26T15:38:46;97407.13;;;30.88;42.73
43155;BME280;34212;51.018;13.586;2023-06-26T15:43:48;97401.22;;;30.72;43.09
43155;BME280;34212;51.018;13.586;2023-06-26T15:48:49;97396.16;;;30.48;44.31
43155;BME280;34212;51.018;13.586;2023-06-26T15:53:51;97398.59;;;30.18;44.87
43155;BME280;34212;51.018;13.586;2023-06-26T15:58:52;97400.03;;;29.84;46.37
43155;BME280;34212;51.018;13.586;2023-06-26T16:03:54;97422.81;;;29.54;46.76
43155;BME280;34212;51.018;13.586;2023-06-26T16:08:55;97536.41;;;29.21;46.45
43155;BME280;34212;51.018;13.586;2023-06-26T16:13:57;97564.31;;;28.22;51.63
43155;BME280;34212;51.018;13.586;2023-06-26T16:18:59;97569.50;;;25.98;62.79
43155;BME280;34212;51.018;13.586;2023-06-26T16:24:01;97594.38;;;24.01;70.92
43155;BME280;34212;51.018;13.586;2023-06-26T16:29:02;97593.41;;;22.76;75.36
43155;BME280;34212;51.018;13.586;2023-06-26T16:34:04;97545.09;;;22.03;79.16
43155;BME280;34212;51.018;13.586;2023-06-26T16:39:06;97543.38;;;21.92;79.94
43155;BME280;34212;51.018;13.586;2023-06-26T16:44:07;97551.72;;;21.85;80.95
43155;BME280;34212;51.018;13.586;2023-06-26T16:49:08;97564.72;;;21.83;81.40
43155;BME280;34212;51.018;13.586;2023-06-26T16:54:10;97583.06;;;21.71;82.88
43155;BME280;34212;51.018;13.586;2023-06-26T16:59:11;97571.09;;;21.67;84.14
43155;BME280;34212;51.018;13.586;2023-06-26T17:04:13;97562.22;;;21.72;85.16
43155;BME280;34212;51.018;13.586;2023-06-26T17:09:15;97586.16;;;21.80;85.80
43155;BME280;34212;51.018;13.586;2023-06-26T17:14:16;97571.16;;;21.72;86.84
43155;BME280;34212;51.018;13.586;2023-06-26T17:19:18;97571.41;;;21.71;87.64
43155;BME280;34212;51.018;13.586;2023-06-26T17:24:20;97575.25;;;21.75;88.19
43155;BME280;34212;51.018;13.586;2023-06-26T17:29:21;97599.19;;;21.78;89.45
43155;BME280;34212;51.018;13.586;2023-06-26T17:34:23;97625.22;;;21.79;90.28
43155;BME280;34212;51.018;13.586;2023-06-26T17:39:24;97632.34;;;21.85;90.74
43155;BME280;34212;51.018;13.586;2023-06-26T17:44:27;97647.31;;;21.87;90.86
43155;BME280;34212;51.018;13.586;2023-06-26T17:49:30;97662.56;;;21.94;91.61
43155;BME280;34212;51.018;13.586;2023-06-26T17:54:31;97667.78;;;22.00;91.79
43155;BME280;34212;51.018;13.586;2023-06-26T17:59:33;97674.34;;;22.04;92.18
43155;BME280;34212;51.018;13.586;2023-06-26T18:04:36;97687.69;;;22.06;91.70
43155;BME280;34212;51.018;13.586;2023-06-26T18:09:37;97703.63;;;22.02;91.75
43155;BME280;34212;51.018;13.586;2023-06-26T18:14:39;97702.50;;;21.98;91.43
43155;BME280;34212;51.018;13.586;2023-06-26T18:19:40;97723.38;;;21.71;91.12
43155;BME280;34212;51.018;13.586;2023-06-26T18:24:42;97724.16;;;21.44;90.88
43155;BME280;34212;51.018;13.586;2023-06-26T18:29:44;97734.69;;;21.23;91.64
43155;BME280;34212;51.018;13.586;2023-06-26T18:34:45;97746.47;;;21.12;91.85
43155;BME280;34212;51.018;13.586;2023-06-26T18:39:47;97744.28;;;21.09;92.50
43155;BME280;34212;51.018;13.586;2023-06-26T18:44:48;97747.03;;;21.14;93.01
43155;BME280;34212;51.018;13.586;2023-06-26T18:49:51;97743.28;;;21.15;92.26
43155;BME280;34212;51.018;13.586;2023-06-26T18:54:53;97746.47;;;21.12;92.58
43155;BME280;34212;51.018;13.586;2023-06-26T18:59:55;97761.34;;;21.10;92.27
43155;BME280;34212;51.018;13.586;2023-06-26T19:04:56;97766.50;;;21.11;92.33
43155;BME280;34212;51.018;13.586;2023-06-26T19:09:58;97770.88;;;21.12;92.18
43155;BME280;34212;51.018;13.586;2023-06-26T19:15:01;97776.31;;;21.12;91.83
43155;BME280;34212;51.018;13.586;2023-06-26T19:20:04;97785.00;;;21.14;91.97
43155;BME280;34212;51.018;13.586;2023-06-26T19:25:06;97780.16;;;21.16;92.13
43155;BME280;34212;51.018;13.586;2023-06-26T19:30:08;97787.78;;;21.19;91.82
43155;BME280;34212;51.018;13.586;2023-06-26T19:35:10;97787.78;;;21.19;92.19
43155;BME280;34212;51.018;13.586;2023-06-26T19:40:11;97794.03;;;21.20;92.00
43155;BME280;34212;51.018;13.586;2023-06-26T19:45:13;97805.69;;;21.20;91.93
43155;BME280;34212;51.018;13.586;2023-06-26T19:50:15;97809.72;;;21.18;91.84
43155;BME280;34212;51.018;13.586;2023-06-26T19:55:17;97817.03;;;21.17;92.03
43155;BME280;34212;51.018;13.586;2023-06-26T20:00:18;97815.13;;;21.18;91.89
43155;BME280;34212;51.018;13.586;2023-06-26T20:05:20;97821.66;;;21.17;92.26
43155;BME280;34212;51.018;13.586;2023-06-26T20:10:22;97796.41;;;21.16;92.13
43155;BME280;34212;51.018;13.586;2023-06-26T20:15:23;97815.09;;;21.13;91.89
43155;BME280;34212;51.018;13.586;2023-06-26T20:20:25;97813.41;;;21.12;92.41
43155;BME280;34212;51.018;13.586;2023-06-26T20:25:27;97808.59;;;21.14;92.06
43155;BME280;34212;51.018;13.586;2023-06-26T20:30:29;97810.47;;;21.13;92.32
43155;BME280;34212;51.018;13.586;2023-06-26T20:35:30;97801.75;;;21.11;92.29
43155;BME280;34212;51.018;13.586;2023-06-26T20:40:32;97792.22;;;21.09;92.39
43155;BME280;34212;51.018;13.586;2023-06-26T20:45:33;97792.16;;;21.04;92.22
43155;BME280;34212;51.018;13.586;2023-06-26T20:50:35;97783.72;;;21.00;92.08
43155;BME280;34212;51.018;13.586;2023-06-26T20:55:37;97785.50;;;20.94;91.78
43155;BME280;34212;51.018;13.586;2023-06-26T21:00:39;97787.31;;;20.89;91.74
43155;BME280;34212;51.018;13.586;2023-06-26T21:05:41;97786.19;;;20.85;91.73
43155;BME280;34212;51.018;13.586;2023-06-26T21:10:43;97780.66;;;20.80;92.34
43155;BME280;34212;51.018;13.586;2023-06-26T21:15:44;97776.31;;;20.79;92.25
43155;BME280;34212;51.018;13.586;2023-06-26T21:20:46;97785.50;;;20.77;92.47
43155;BME280;34212;51.018;13.586;2023-06-26T21:25:47;97793.06;;;20.75;92.98
43155;BME280;34212;51.018;13.586;2023-06-26T21:30:49;97794.38;;;20.73;92.71
43155;BME280;34212;51.018;13.586;2023-06-26T21:35:50;97771.63;;;20.74;93.18
43155;BME280;34212;51.018;13.586;2023-06-26T21:40:52;97784.69;;;20.77;93.64
43155;BME280;34212;51.018;13.586;2023-06-26T21:45:54;97758.16;;;20.79;93.46
43155;BME280;34212;51.018;13.586;2023-06-26T21:50:56;97764.78;;;20.71;93.77
43155;BME280;34212;51.018;13.586;2023-06-26T21:55:57;97768.44;;;20.60;93.50
43155;BME280;34212;51.018;13.586;2023-06-26T22:00:59;97771.03;;;20.55;93.60
43155;BME280;34212;51.018;13.586;2023-06-26T22:06:00;97774.00;;;20.53;93.76
43155;BME280;34212;51.018;13.586;2023-06-26T22:11:02;97759.03;;;20.51;93.56
43155;BME280;34212;51.018;13.586;2023-06-26T22:16:04;97760.09;;;20.50;93.66
43155;BME280;34212;51.018;13.586;2023-06-26T22:21:05;97745.25;;;20.52;93.75
43155;BME280;34212;51.018;13.586;2023-06-26T22:26:07;97771.53;;;20.52;94.11
43155;BME280;34212;51.018;13.586;2023-06-26T22:31:08;97781.41;;;20.46;93.62
43155;BME280;34212;51.018;13.586;2023-06-26T22:36:10;97795.38;;;20.38;92.89
43155;BME280;34212;51.018;13.586;2023-06-26T22:41:11;97779.50;;;20.30;93.68
43155;BME280;34212;51.018;13.586;2023-06-26T22:46:13;97777.28;;;20.27;93.92
43155;BME280;34212;51.018;13.586;2023-06-26T22:51:14;97775.38;;;20.27;93.56
43155;BME280;34212;51.018;13.586;2023-06-26T22:56:16;97769.16;;;20.27;94.34
43155;BME280;34212;51.018;13.586;2023-06-26T23:01:17;97774.09;;;20.30;94.61
43155;BME280;34212;51.018;13.586;2023-06-26T23:06:20;97780.13;;;20.20;94.42
43155;BME280;34212;51.018;13.586;2023-06-26T23:11:23;97786.91;;;20.06;94.32
43155;BME280;34212;51.018;13.586;2023-06-26T23:16:24;97795.69;;;19.84;92.69
43155;BME280;34212;51.018;13.586;2023-06-26T23:21:26;97823.38;;;19.51;92.68
43155;BME280;34212;51.018;13.586;2023-06-26T23:26:28;97833.81;;;19.24;93.27
43155;BME280;34212;51.018;13.586;2023-06-26T23:31:33;97846.38;;;19.19;93.83
43155;BME280;34212;51.018;13.586;2023-06-26T23:36:35;97847.09;;;19.14;92.91
43155;BME280;34212;51.018;13.586;2023-06-26T23:41:41;97862.84;;;19.05;92.96
43155;BME280;34212;51.018;13.586;2023-06-26T23:46:43;97867.28;;;19.00;92.61
43155;BME280;34212;51.018;13.586;2023-06-26T23:51:44;97879.88;;;18.94;92.20
43155;BME280;34212;51.018;13.586;2023-06-26T23:56:46;97881.50;;;18.95;92.58
